createdAt,value
2018-08-31T00:01:35.174Z,98445.45
2018-08-31T00:04:41.636Z,98441.36
2018-08-31T00:07:27.582Z,98441.14
2018-08-31T00:11:12.750Z,98440.34
2018-08-31T00:13:41.683Z,98439.64
2018-08-31T00:16:10.427Z,98438.11
2018-08-31T00:18:39.613Z,98440.14
2018-08-31T00:21:08.448Z,98437.49
2018-08-31T00:23:49.124Z,98431.84
2018-08-31T00:26:29.034Z,98425.63
2018-08-31T00:29:10.198Z,98427.69
2018-08-31T00:31:55.994Z,98425.30
2018-08-31T00:35:32.064Z,98426.19
2018-08-31T00:38:13.089Z,98420.73
2018-08-31T00:42:56.677Z,98424.02
2018-08-31T00:45:31.823Z,98416.66
2018-08-31T00:48:01.122Z,98415.05
2018-08-31T00:50:30.757Z,98417.08
2018-08-31T00:52:59.845Z,98419.88
2018-08-31T00:55:28.842Z,98417.46
2018-08-31T00:57:57.802Z,98415.40
2018-08-31T01:00:27.001Z,98414.26
2018-08-31T01:02:56.058Z,98421.47
2018-08-31T01:05:25.897Z,98414.58
2018-08-31T01:07:54.669Z,98422.34
2018-08-31T01:10:24.673Z,98427.71
2018-08-31T01:12:54.740Z,98428.69
2018-08-31T01:15:24.023Z,98427.88
2018-08-31T01:17:52.758Z,98422.28
2018-08-31T01:20:23.413Z,98416.58
2018-08-31T01:22:53.159Z,98412.12
2018-08-31T01:25:21.868Z,98416.51
2018-08-31T01:27:50.539Z,98420.05
2018-08-31T01:30:19.593Z,98411.47
2018-08-31T01:32:48.759Z,98412.83
2018-08-31T01:35:17.823Z,98410.44
2018-08-31T01:37:46.719Z,98411.88
2018-08-31T01:40:15.525Z,98411.41
2018-08-31T01:42:44.939Z,98409.56
2018-08-31T01:45:14.272Z,98413.30
2018-08-31T01:47:43.353Z,98410.09
2018-08-31T01:50:12.663Z,98409.37
2018-08-31T01:52:41.698Z,98408.56
2018-08-31T01:55:10.974Z,98407.37
2018-08-31T01:57:40.330Z,98409.30
2018-08-31T02:00:09.519Z,98402.89
2018-08-31T02:02:38.929Z,98396.70
2018-08-31T02:05:07.577Z,98390.78
2018-08-31T02:07:37.067Z,98395.20
2018-08-31T02:10:06.307Z,98388.54
2018-08-31T02:12:35.129Z,98388.95
2018-08-31T02:15:03.726Z,98383.65
2018-08-31T02:17:32.663Z,98384.79
2018-08-31T02:20:02.315Z,98371.31
2018-08-31T02:22:30.990Z,98377.56
2018-08-31T02:24:59.633Z,98368.44
2018-08-31T02:27:28.369Z,98364.02
2018-08-31T02:29:57.073Z,98366.83
2018-08-31T02:32:26.450Z,98352.98
2018-08-31T02:34:55.644Z,98355.70
2018-08-31T02:37:26.001Z,98339.77
2018-08-31T02:39:54.995Z,98336.56
2018-08-31T02:42:23.824Z,98330.92
2018-08-31T02:44:52.465Z,98326.37
2018-08-31T02:47:21.845Z,98328.46
2018-08-31T02:49:51.094Z,98325.26
2018-08-31T02:52:20.080Z,98326.14
2018-08-31T02:54:49.331Z,98316.35
2018-08-31T02:57:18.538Z,98315.41
2018-08-31T02:59:47.472Z,98309.23
2018-08-31T03:02:16.269Z,98309.63
2018-08-31T03:04:45.150Z,98327.19
2018-08-31T03:07:14.833Z,98340.95
2018-08-31T03:09:43.835Z,98354.58
2018-08-31T03:12:14.026Z,98358.99
2018-08-31T03:14:43.679Z,98358.03
2018-08-31T03:17:12.281Z,98356.49
2018-08-31T03:19:41.271Z,98359.61
2018-08-31T03:22:09.944Z,98357.84
2018-08-31T03:24:38.940Z,98355.63
2018-08-31T03:27:09.169Z,98358.73
2018-08-31T03:29:38.153Z,98349.45
2018-08-31T03:32:06.844Z,98343.53
2018-08-31T03:34:35.523Z,98342.17
2018-08-31T03:37:04.345Z,98345.70
2018-08-31T03:39:33.536Z,98350.97
2018-08-31T03:42:02.934Z,98352.00
2018-08-31T03:44:31.765Z,98351.92
2018-08-31T03:47:00.664Z,98343.94
2018-08-31T03:49:29.963Z,98348.80
2018-08-31T03:51:58.550Z,98341.52
2018-08-31T03:54:28.048Z,98333.52
2018-08-31T03:56:56.954Z,98340.41
2018-08-31T03:59:26.103Z,98338.31
2018-08-31T04:01:55.613Z,98334.38
2018-08-31T04:04:24.728Z,98337.68
2018-08-31T04:06:54.025Z,98342.65
2018-08-31T04:09:23.635Z,98337.09
2018-08-31T04:11:52.309Z,98338.38
2018-08-31T04:14:21.173Z,98337.16
2018-08-31T04:16:49.821Z,98337.33
2018-08-31T04:19:18.913Z,98341.16
2018-08-31T04:21:47.718Z,98340.67
2018-08-31T04:24:17.150Z,98338.20
2018-08-31T04:26:47.259Z,98335.01
2018-08-31T04:29:16.467Z,98334.27
2018-08-31T04:31:46.300Z,98335.15
2018-08-31T04:34:16.303Z,98333.78
2018-08-31T04:36:45.424Z,98339.97
2018-08-31T04:39:14.384Z,98336.84
2018-08-31T04:41:44.621Z,98331.00
2018-08-31T04:44:13.579Z,98339.23
2018-08-31T04:46:42.386Z,98340.67
2018-08-31T04:49:12.494Z,98340.28
2018-08-31T04:51:41.283Z,98343.25
2018-08-31T04:54:10.044Z,98348.56
2018-08-31T04:56:38.919Z,98344.70
2018-08-31T04:59:07.760Z,98341.91
2018-08-31T05:01:36.442Z,98337.89
2018-08-31T05:04:05.243Z,98333.81
2018-08-31T05:06:34.727Z,98330.61
2018-08-31T05:09:04.514Z,98324.69
2018-08-31T05:11:34.597Z,98324.75
2018-08-31T05:14:05.390Z,98316.66
2018-08-31T05:16:34.228Z,98321.70
2018-08-31T05:19:03.275Z,98321.96
2018-08-31T05:21:32.281Z,98320.83
2018-08-31T05:24:01.034Z,98323.33
2018-08-31T05:26:29.981Z,98319.23
2018-08-31T05:28:59.430Z,98320.20
2018-08-31T05:31:28.314Z,98317.00
2018-08-31T05:33:57.036Z,98311.70
2018-08-31T05:36:29.071Z,98311.01
2018-08-31T05:38:57.930Z,98309.24
2018-08-31T05:41:27.182Z,98316.45
2018-08-31T05:43:56.661Z,98322.78
2018-08-31T05:46:25.721Z,98320.12
2018-08-31T05:48:54.450Z,98323.00
2018-08-31T05:51:23.086Z,98324.95
2018-08-31T05:53:52.324Z,98328.45
2018-08-31T05:56:21.625Z,98328.08
2018-08-31T05:58:50.892Z,98328.85
2018-08-31T06:01:19.678Z,98334.15
2018-08-31T06:03:48.396Z,98335.02
2018-08-31T06:06:17.175Z,98340.40
2018-08-31T06:08:46.636Z,98333.10
2018-08-31T06:11:15.456Z,98335.08
2018-08-31T06:13:44.069Z,98335.00
2018-08-31T06:16:13.484Z,98334.38
2018-08-31T06:18:43.606Z,98325.23
2018-08-31T06:21:13.785Z,98328.09
2018-08-31T06:23:42.586Z,98329.30
2018-08-31T06:26:11.242Z,98334.11
2018-08-31T06:28:40.574Z,98336.51
2018-08-31T06:31:09.756Z,98338.34
2018-08-31T06:33:38.344Z,98345.98
2018-08-31T06:36:07.140Z,98344.78
2018-08-31T06:38:37.545Z,98348.71
2018-08-31T06:41:06.561Z,98357.91
2018-08-31T06:43:35.964Z,98345.09
2018-08-31T06:46:04.689Z,98341.90
2018-08-31T06:48:33.275Z,98333.30
2018-08-31T06:51:02.461Z,98324.66
2018-08-31T06:53:31.935Z,98324.46
2018-08-31T06:56:00.619Z,98322.41
2018-08-31T06:58:30.171Z,98332.90
2018-08-31T07:00:59.120Z,98341.22
2018-08-31T07:03:27.731Z,98346.92
2018-08-31T07:05:56.394Z,98349.81
2018-08-31T07:08:25.125Z,98350.53
2018-08-31T07:10:54.015Z,98359.44
2018-08-31T07:13:22.684Z,98363.60
2018-08-31T07:15:51.999Z,98359.90
2018-08-31T07:18:20.671Z,98361.27
2018-08-31T07:20:50.141Z,98355.13
2018-08-31T07:23:19.054Z,98355.52
2018-08-31T07:25:47.652Z,98345.23
2018-08-31T07:28:16.732Z,98339.27
2018-08-31T07:30:45.316Z,98344.81
2018-08-31T07:33:14.327Z,98344.20
2018-08-31T07:35:43.566Z,98343.94
2018-08-31T07:38:12.745Z,98346.88
2018-08-31T07:40:41.672Z,98350.00
2018-08-31T07:43:11.297Z,98360.74
2018-08-31T07:45:40.110Z,98356.01
2018-08-31T07:48:08.980Z,98342.84
2018-08-31T07:50:38.291Z,98351.02
2018-08-31T07:53:07.191Z,98341.52
2018-08-31T07:55:36.341Z,98348.81
2018-08-31T07:58:05.940Z,98350.94
2018-08-31T08:00:34.890Z,98349.45
2018-08-31T08:03:04.150Z,98359.51
2018-08-31T08:05:33.251Z,98366.88
2018-08-31T08:08:02.121Z,98370.88
2018-08-31T08:10:30.836Z,98376.42
2018-08-31T08:13:00.099Z,98373.14
2018-08-31T08:15:28.962Z,98377.23
2018-08-31T08:17:58.687Z,98372.02
2018-08-31T08:20:27.730Z,98378.26
2018-08-31T08:22:57.010Z,98382.52
2018-08-31T08:25:26.332Z,98383.16
2018-08-31T08:27:55.272Z,98379.95
2018-08-31T08:30:24.246Z,98385.27
2018-08-31T08:32:53.096Z,98386.25
2018-08-31T08:35:22.117Z,98389.06
2018-08-31T08:37:51.926Z,98388.97
2018-08-31T08:40:20.708Z,98394.42
2018-08-31T08:42:49.356Z,98392.01
2018-08-31T08:45:18.333Z,98393.77
2018-08-31T08:47:47.126Z,98393.37
2018-08-31T08:50:16.255Z,98395.38
2018-08-31T08:52:45.752Z,98396.32
2018-08-31T08:55:14.846Z,98399.88
2018-08-31T08:57:43.696Z,98396.48
2018-08-31T09:00:12.531Z,98397.47
2018-08-31T09:02:42.786Z,98396.23
2018-08-31T09:05:11.403Z,98399.02
2018-08-31T09:07:40.288Z,98400.55
2018-08-31T09:10:09.222Z,98406.40
2018-08-31T09:12:38.058Z,98403.94
2018-08-31T09:15:07.031Z,98397.55
2018-08-31T09:17:35.886Z,98395.28
2018-08-31T09:20:04.999Z,98391.14
2018-08-31T09:22:34.490Z,98398.28
2018-08-31T09:25:03.500Z,98399.33
2018-08-31T09:27:33.707Z,98401.56
2018-08-31T09:30:03.142Z,98403.52
2018-08-31T09:32:33.012Z,98409.06
2018-08-31T09:35:02.495Z,98402.20
2018-08-31T09:37:31.800Z,98400.36
2018-08-31T09:40:01.929Z,98399.22
2018-08-31T09:42:33.166Z,98400.83
2018-08-31T09:45:01.782Z,98406.59
2018-08-31T09:47:30.458Z,98402.75
2018-08-31T09:49:59.207Z,98408.11
2018-08-31T09:52:27.892Z,98407.04
2018-08-31T09:54:58.123Z,98404.78
2018-08-31T09:57:26.967Z,98405.98
2018-08-31T09:59:56.477Z,98408.23
2018-08-31T10:02:31.581Z,98405.50
2018-08-31T10:05:00.206Z,98410.89
2018-08-31T10:07:29.177Z,98412.50
2018-08-31T10:09:58.446Z,98416.03
2018-08-31T10:12:27.496Z,98417.70
2018-08-31T10:14:56.371Z,98419.32
2018-08-31T10:17:26.651Z,98420.20
2018-08-31T10:19:55.287Z,98411.20
2018-08-31T10:22:24.613Z,98410.80
2018-08-31T10:24:53.385Z,98407.77
2018-08-31T10:27:23.099Z,98417.39
2018-08-31T10:29:52.052Z,98421.80
2018-08-31T10:32:22.505Z,98415.72
2018-08-31T10:34:51.440Z,98411.38
2018-08-31T10:37:20.445Z,98413.06
2018-08-31T10:39:49.954Z,98406.24
2018-08-31T10:42:19.202Z,98412.09
2018-08-31T10:44:48.536Z,98412.49
2018-08-31T10:47:17.651Z,98416.37
2018-08-31T10:49:46.556Z,98419.33
2018-08-31T10:52:15.373Z,98430.13
2018-08-31T10:54:45.261Z,98431.91
2018-08-31T10:57:14.144Z,98428.78
2018-08-31T10:59:44.918Z,98429.34
2018-08-31T11:02:13.602Z,98425.51
2018-08-31T11:04:42.376Z,98426.93
2018-08-31T11:07:11.094Z,98420.06
2018-08-31T11:09:39.889Z,98412.97
2018-08-31T11:12:08.780Z,98425.32
2018-08-31T11:14:38.070Z,98432.45
2018-08-31T11:17:07.305Z,98432.34
2018-08-31T11:19:36.150Z,98427.77
2018-08-31T11:22:05.717Z,98422.69
2018-08-31T11:24:34.592Z,98428.11
2018-08-31T11:27:03.141Z,98425.64
2018-08-31T11:29:32.576Z,98428.67
2018-08-31T11:32:02.217Z,98435.77
2018-08-31T11:34:30.951Z,98436.57
2018-08-31T11:37:00.252Z,98439.22
2018-08-31T11:39:28.962Z,98437.21
2018-08-31T11:41:58.507Z,98440.41
2018-08-31T11:44:27.728Z,98440.32
2018-08-31T11:46:57.032Z,98440.16
2018-08-31T11:49:25.893Z,98444.55
2018-08-31T11:51:54.778Z,98437.01
2018-08-31T11:54:23.687Z,98436.78
2018-08-31T11:56:52.633Z,98431.23
2018-08-31T11:59:21.423Z,98437.48
2018-08-31T12:01:52.369Z,98442.16
2018-08-31T12:04:21.427Z,98439.52
2018-08-31T12:06:50.803Z,98433.89
2018-08-31T12:09:20.217Z,98431.67
2018-08-31T12:11:49.191Z,98429.36
2018-08-31T12:14:18.158Z,98434.34
2018-08-31T12:16:46.839Z,98425.22
2018-08-31T12:19:16.968Z,98431.50
2018-08-31T12:21:46.069Z,98426.77
2018-08-31T12:24:14.993Z,98421.95
2018-08-31T12:26:46.444Z,98423.68
2018-08-31T12:29:15.293Z,98419.81
2018-08-31T12:31:43.999Z,98425.91
2018-08-31T12:34:12.677Z,98418.91
2018-08-31T12:36:41.513Z,98416.02
2018-08-31T12:39:11.316Z,98421.64
2018-08-31T12:41:40.385Z,98422.12
2018-08-31T12:44:09.703Z,98428.80
2018-08-31T12:46:39.362Z,98428.20
2018-08-31T12:49:08.189Z,98424.91
2018-08-31T12:51:36.963Z,98430.56
2018-08-31T12:54:05.641Z,98430.09
2018-08-31T12:56:35.058Z,98425.77
2018-08-31T12:59:04.416Z,98427.61
2018-08-31T13:01:33.276Z,98427.69
2018-08-31T13:04:03.947Z,98430.58
2018-08-31T13:06:32.733Z,98432.20
2018-08-31T13:09:02.937Z,98425.64
2018-08-31T13:11:31.678Z,98428.34
2018-08-31T13:14:00.734Z,98433.89
2018-08-31T13:16:29.932Z,98427.80
2018-08-31T13:18:59.162Z,98426.02
2018-08-31T13:21:27.768Z,98428.66
2018-08-31T13:23:57.464Z,98420.81
2018-08-31T13:26:26.517Z,98423.94
2018-08-31T13:28:56.013Z,98417.03
2018-08-31T13:31:24.864Z,98418.88
2018-08-31T13:33:53.689Z,98415.95
2018-08-31T13:36:22.477Z,98423.33
2018-08-31T13:38:51.336Z,98423.63
2018-08-31T13:41:20.227Z,98424.02
2018-08-31T13:43:49.446Z,98420.42
2018-08-31T13:46:18.618Z,98415.39
2018-08-31T13:48:47.814Z,98415.70
2018-08-31T13:51:16.504Z,98412.47
2018-08-31T13:53:45.196Z,98415.11
2018-08-31T13:56:14.748Z,98407.83
2018-08-31T13:58:43.494Z,98413.42
2018-08-31T14:01:13.132Z,98409.48
2018-08-31T14:03:42.165Z,98415.11
2018-08-31T14:06:11.892Z,98423.65
2018-08-31T14:08:40.674Z,98422.37
2018-08-31T14:11:10.598Z,98426.88
2018-08-31T14:13:39.397Z,98422.31
2018-08-31T14:16:08.056Z,98418.27
2018-08-31T14:18:36.763Z,98420.83
2018-08-31T14:21:05.894Z,98424.20
2018-08-31T14:23:34.679Z,98423.98
2018-08-31T14:26:03.985Z,98425.44
2018-08-31T14:28:33.478Z,98428.77
2018-08-31T14:31:02.453Z,98430.03
2018-08-31T14:33:31.458Z,98431.11
2018-08-31T14:36:00.234Z,98427.88
2018-08-31T14:38:29.463Z,98430.30
2018-08-31T14:40:58.512Z,98432.56
2018-08-31T14:43:27.208Z,98431.87
2018-08-31T14:45:56.099Z,98433.19
2018-08-31T14:48:25.069Z,98434.21
2018-08-31T14:50:54.764Z,98432.17
2018-08-31T14:53:23.573Z,98427.78
2018-08-31T14:55:52.187Z,98428.72
2018-08-31T14:58:21.255Z,98423.27
2018-08-31T15:00:50.026Z,98432.42
2018-08-31T15:03:19.690Z,98429.95
2018-08-31T15:05:48.958Z,98421.77
2018-08-31T15:08:17.514Z,98432.98
2018-08-31T15:10:46.442Z,98426.16
2018-08-31T15:13:16.697Z,98425.05
2018-08-31T15:15:45.762Z,98433.66
2018-08-31T15:18:14.973Z,98430.28
2018-08-31T15:20:44.228Z,98430.09
2018-08-31T15:23:13.405Z,98431.20
2018-08-31T15:25:42.816Z,98428.22
2018-08-31T15:28:11.489Z,98426.64
2018-08-31T15:30:42.552Z,98429.36
2018-08-31T15:33:11.423Z,98423.77
2018-08-31T15:35:40.126Z,98426.80
2018-08-31T15:38:09.740Z,98421.54
2018-08-31T15:40:38.841Z,98418.98
2018-08-31T15:43:08.524Z,98420.93
2018-08-31T15:45:37.567Z,98424.86
2018-08-31T15:48:07.640Z,98423.99
2018-08-31T15:50:38.758Z,98423.27
2018-08-31T15:53:08.035Z,98419.80
2018-08-31T15:55:37.582Z,98422.45
2018-08-31T15:58:07.477Z,98421.42
2018-08-31T16:00:37.698Z,98423.18
2018-08-31T16:03:07.609Z,98420.45
2018-08-31T16:05:36.386Z,98420.36
2018-08-31T16:08:05.407Z,98428.86
2018-08-31T16:10:37.009Z,98427.09
2018-08-31T16:13:06.873Z,98432.06
2018-08-31T16:15:35.828Z,98431.17
2018-08-31T16:18:04.709Z,98426.86
2018-08-31T16:20:33.702Z,98428.86
2018-08-31T16:23:03.495Z,98436.48
2018-08-31T16:25:32.320Z,98438.39
2018-08-31T16:28:01.645Z,98441.45
2018-08-31T16:30:31.741Z,98442.89
2018-08-31T16:33:00.478Z,98433.09
2018-08-31T16:35:29.242Z,98440.09
2018-08-31T16:37:58.035Z,98434.86
2018-08-31T16:40:26.720Z,98434.52
2018-08-31T16:42:55.450Z,98427.31
2018-08-31T16:45:24.511Z,98436.55
2018-08-31T16:47:53.451Z,98428.52
2018-08-31T16:50:24.019Z,98436.61
2018-08-31T16:52:53.249Z,98436.13
2018-08-31T16:55:23.379Z,98440.35
2018-08-31T16:57:52.363Z,98440.97
2018-08-31T17:00:21.370Z,98446.20
2018-08-31T17:02:50.313Z,98452.62
2018-08-31T17:05:20.005Z,98443.97
2018-08-31T17:07:48.865Z,98446.05
2018-08-31T17:10:19.059Z,98449.81
2018-08-31T17:12:49.008Z,98442.93
2018-08-31T17:15:18.035Z,98450.62
2018-08-31T17:17:47.685Z,98451.72
2018-08-31T17:20:16.728Z,98455.17
2018-08-31T17:22:45.980Z,98454.59
2018-08-31T17:25:16.463Z,98450.90
2018-08-31T17:27:50.344Z,98454.43
2018-08-31T17:30:21.548Z,98453.07
2018-08-31T17:32:55.754Z,98450.90
2018-08-31T17:35:29.775Z,98452.19
2018-08-31T17:38:00.809Z,98450.67
2018-08-31T17:40:31.233Z,98460.66
2018-08-31T17:43:01.408Z,98461.61
2018-08-31T17:45:30.373Z,98463.11
2018-08-31T17:47:59.457Z,98466.08
2018-08-31T17:50:29.539Z,98461.67
2018-08-31T17:52:59.109Z,98458.23
2018-08-31T17:55:29.299Z,98461.35
2018-08-31T17:58:00.203Z,98469.29
2018-08-31T18:00:29.403Z,98467.44
2018-08-31T18:02:58.330Z,98475.61
2018-08-31T18:05:27.662Z,98476.33
2018-08-31T18:07:56.662Z,98477.94
2018-08-31T18:10:26.236Z,98481.96
2018-08-31T18:12:55.288Z,98477.55
2018-08-31T18:15:24.015Z,98485.09
2018-08-31T18:17:53.414Z,98486.94
2018-08-31T18:20:22.953Z,98483.64
2018-08-31T18:22:51.935Z,98477.77
2018-08-31T18:25:20.952Z,98482.02
2018-08-31T18:27:50.038Z,98482.02
2018-08-31T18:30:19.428Z,98488.28
2018-08-31T18:32:48.489Z,98489.55
2018-08-31T18:35:18.263Z,98492.36
2018-08-31T18:37:47.112Z,98499.95
2018-08-31T18:40:16.279Z,98504.84
2018-08-31T18:42:45.372Z,98503.80
2018-08-31T18:45:14.593Z,98507.02
2018-08-31T18:47:43.704Z,98512.45
2018-08-31T18:50:12.660Z,98511.64
2018-08-31T18:52:42.230Z,98513.27
2018-08-31T18:55:11.446Z,98514.37
2018-08-31T18:57:40.253Z,98523.09
2018-08-31T19:00:09.804Z,98521.23
2018-08-31T19:02:38.947Z,98526.20
2018-08-31T19:05:07.669Z,98531.77
2018-08-31T19:07:37.730Z,98527.78
2018-08-31T19:10:06.804Z,98538.41
2018-08-31T19:12:36.121Z,98529.29
2018-08-31T19:15:06.539Z,98538.00
2018-08-31T19:17:35.443Z,98553.23
2018-08-31T19:20:04.883Z,98552.52
2018-08-31T19:22:33.691Z,98536.02
2018-08-31T19:25:02.598Z,98543.45
2018-08-31T19:27:33.208Z,98544.52
2018-08-31T19:30:03.415Z,98551.72
2018-08-31T19:32:32.820Z,98552.46
2018-08-31T19:35:02.509Z,98552.84
2018-08-31T19:37:32.884Z,98561.88
2018-08-31T19:40:02.406Z,98555.31
2018-08-31T19:42:32.676Z,98555.41
2018-08-31T19:45:02.096Z,98558.41
2018-08-31T19:47:31.379Z,98553.32
2018-08-31T19:50:00.830Z,98558.44
2018-08-31T19:52:31.550Z,98557.17
2018-08-31T19:55:01.410Z,98559.31
2018-08-31T19:57:31.189Z,98557.95
2018-08-31T20:00:00.447Z,98562.03
2018-08-31T20:02:30.429Z,98564.47
2018-08-31T20:04:59.829Z,98566.84
2018-08-31T20:07:30.774Z,98570.27
2018-08-31T20:10:00.250Z,98566.45
2018-08-31T20:12:29.246Z,98572.64
2018-08-31T20:14:59.042Z,98578.64
2018-08-31T20:17:28.594Z,98575.84
2018-08-31T20:19:57.865Z,98571.14
2018-08-31T20:22:27.114Z,98568.55
2018-08-31T20:24:57.139Z,98567.97
2018-08-31T20:27:26.528Z,98572.37
2018-08-31T20:29:55.735Z,98571.88
2018-08-31T20:32:26.925Z,98567.53
2018-08-31T20:34:56.173Z,98576.22
2018-08-31T20:37:27.571Z,98581.41
2018-08-31T20:39:57.665Z,98576.22
2018-08-31T20:42:28.790Z,98573.23
2018-08-31T20:44:58.064Z,98574.42
2018-08-31T20:47:27.446Z,98580.30
2018-08-31T20:49:57.289Z,98580.05
2018-08-31T20:52:26.477Z,98577.70
2018-08-31T20:54:57.184Z,98585.37
2018-08-31T20:57:26.286Z,98576.57
2018-08-31T20:59:56.178Z,98582.33
2018-08-31T21:02:25.442Z,98583.02
2018-08-31T21:04:54.435Z,98591.24
2018-08-31T21:07:24.140Z,98588.03
2018-08-31T21:09:53.158Z,98592.60
2018-08-31T21:12:22.279Z,98594.69
2018-08-31T21:14:51.569Z,98598.22
2018-08-31T21:17:21.925Z,98593.03
2018-08-31T21:19:50.980Z,98594.40
2018-08-31T21:22:20.706Z,98592.40
2018-08-31T21:24:50.186Z,98596.97
2018-08-31T21:27:19.265Z,98596.19
2018-08-31T21:29:48.269Z,98591.85
2018-08-31T21:32:17.837Z,98603.77
2018-08-31T21:34:46.660Z,98594.57
2018-08-31T21:37:15.445Z,98597.55
2018-08-31T21:39:44.187Z,98596.19
2018-08-31T21:42:13.802Z,98607.56
2018-08-31T21:44:42.981Z,98608.11
2018-08-31T21:47:12.014Z,98607.30
2018-08-31T21:49:41.291Z,98607.13
2018-08-31T21:52:10.845Z,98602.19
2018-08-31T21:54:39.948Z,98603.92
2018-08-31T21:57:09.043Z,98608.00
2018-08-31T21:59:38.380Z,98605.65
2018-08-31T22:02:07.456Z,98609.15
2018-08-31T22:04:36.876Z,98607.02
2018-08-31T22:07:06.055Z,98602.12
2018-08-31T22:09:35.229Z,98605.39
2018-08-31T22:12:04.943Z,98603.16
2018-08-31T22:14:33.804Z,98599.95
2018-08-31T22:17:02.749Z,98585.86
2018-08-31T22:19:31.825Z,98584.67
2018-08-31T22:22:01.429Z,98590.42
2018-08-31T22:24:30.433Z,98592.59
2018-08-31T22:26:59.885Z,98589.06
2018-08-31T22:29:28.948Z,98596.67
2018-08-31T22:31:57.955Z,98593.95
2018-08-31T22:34:26.529Z,98592.82
2018-08-31T22:36:55.394Z,98589.55
2018-08-31T22:39:24.211Z,98580.80
2018-08-31T22:41:53.060Z,98585.16
2018-08-31T22:44:22.243Z,98590.37
2018-08-31T22:46:51.673Z,98582.53
2018-08-31T22:49:20.830Z,98583.63
2018-08-31T22:51:49.835Z,98572.52
2018-08-31T22:54:18.463Z,98572.25
2018-08-31T22:56:47.534Z,98576.44
2018-08-31T22:59:16.550Z,98565.63
2018-08-31T23:01:45.400Z,98570.02
2018-08-31T23:04:14.119Z,98567.94
2018-08-31T23:06:43.316Z,98568.48
2018-08-31T23:09:13.152Z,98572.35
2018-08-31T23:11:42.164Z,98577.23
2018-08-31T23:14:11.003Z,98583.72
2018-08-31T23:16:40.630Z,98591.27
2018-08-31T23:19:09.515Z,98580.40
2018-08-31T23:21:38.464Z,98569.03
2018-08-31T23:24:07.103Z,98573.92
2018-08-31T23:26:36.475Z,98574.20
2018-08-31T23:29:05.632Z,98579.91
2018-08-31T23:31:34.635Z,98582.08
2018-08-31T23:34:05.604Z,98585.34
2018-08-31T23:36:34.241Z,98585.08
2018-08-31T23:39:03.386Z,98589.42
2018-08-31T23:41:32.059Z,98585.08
2018-08-31T23:44:01.615Z,98593.81
2018-08-31T23:46:30.535Z,98585.39
2018-08-31T23:49:00.289Z,98581.63
2018-08-31T23:51:29.571Z,98581.38
2018-08-31T23:53:58.251Z,98572.35
2018-08-31T23:56:28.410Z,98576.43
2018-08-31T23:58:57.124Z,98570.44
